Time;durP1;ratioP1;P1;durP2;ratioP2;P2;SDS_P1;SDS_P2;PMS_P1;PMS_P2;Temp;Humidity;BMP_temperature;BMP_pressure;BME280_temperature;BME280_humidity;BME280_pressure;Samples;Min_cycle;Max_cycle;Signal;HPM_P1;HPM_P2
2019/09/11 00:01:35;;;;;;;6.3;2;;;;;;;;;;;;;
2019/09/11 00:04:20;;;;;;;3.4;2.2;;;;;;;;;;;;;
2019/09/11 00:06:34;;;;;;;4.6;1.9;;;;;;;;;;;;;
2019/09/11 00:08:58;;;;;;;3.4;1.9;;;;;;;;;;;;;
2019/09/11 00:11:28;;;;;;;4.3;1.9;;;;;;;;;;;;;
2019/09/11 00:13:52;;;;;;;5.1;2.1;;;;;;;;;;;;;
2019/09/11 00:16:15;;;;;;;2.8;2;;;;;;;;;;;;;
2019/09/11 00:18:43;;;;;;;3;1.9;;;;;;;;;;;;;
2019/09/11 00:21:10;;;;;;;4.4;2.2;;;;;;;;;;;;;
2019/09/11 00:23:30;;;;;;;4.7;2.1;;;;;;;;;;;;;
2019/09/11 00:25:56;;;;;;;3.5;2.1;;;;;;;;;;;;;
2019/09/11 00:28:27;;;;;;;5.7;2.2;;;;;;;;;;;;;
2019/09/11 00:31:18;;;;;;;4.3;2.2;;;;;;;;;;;;;
2019/09/11 00:33:43;;;;;;;4;1.8;;;;;;;;;;;;;
2019/09/11 00:36:18;;;;;;;3;2;;;;;;;;;;;;;
2019/09/11 00:39:18;;;;;;;4.1;2.2;;;;;;;;;;;;;
2019/09/11 00:42:20;;;;;;;5.6;2.2;;;;;;;;;;;;;
2019/09/11 00:44:36;;;;;;;3.5;1.9;;;;;;;;;;;;;
2019/09/11 00:47:00;;;;;;;2.7;2.2;;;;;;;;;;;;;
2019/09/11 00:49:31;;;;;;;4.6;2.1;;;;;;;;;;;;;
2019/09/11 00:52:22;;;;;;;5.3;2.3;;;;;;;;;;;;;
2019/09/11 00:54:46;;;;;;;4.7;2.2;;;;;;;;;;;;;
2019/09/11 00:57:09;;;;;;;5.6;2.4;;;;;;;;;;;;;
2019/09/11 01:00:22;;;;;;;3.3;2.4;;;;;;;;;;;;;
2019/09/11 01:02:36;;;;;;;3.2;2;;;;;;;;;;;;;
2019/09/11 01:05:17;;;;;;;3.7;2.2;;;;;;;;;;;;;
2019/09/11 01:07:31;;;;;;;4.5;2.4;;;;;;;;;;;;;
2019/09/11 01:09:53;;;;;;;8;2.2;;;;;;;;;;;;;
2019/09/11 01:12:18;;;;;;;4.3;2.3;;;;;;;;;;;;;
2019/09/11 01:14:47;;;;;;;3;2.1;;;;;;;;;;;;;
2019/09/11 01:19:52;;;;;;;5;2;;;;;;;;;;;;;
2019/09/11 01:22:19;;;;;;;3.9;2;;;;;;;;;;;;;
2019/09/11 01:27:25;;;;;;;4.4;2;;;;;;;;;;;;;
2019/09/11 01:30:19;;;;;;;4.9;2.2;;;;;;;;;;;;;
2019/09/11 01:32:46;;;;;;;3.6;2.1;;;;;;;;;;;;;
2019/09/11 01:35:12;;;;;;;5.1;2.3;;;;;;;;;;;;;
2019/09/11 01:37:35;;;;;;;2.1;1.9;;;;;;;;;;;;;
2019/09/11 01:39:59;;;;;;;2.5;2;;;;;;;;;;;;;
2019/09/11 01:42:31;;;;;;;2.7;2;;;;;;;;;;;;;
2019/09/11 01:45:20;;;;;;;4;2.4;;;;;;;;;;;;;
2019/09/11 01:47:27;;;;;;;3.6;2.4;;;;;;;;;;;;;
2019/09/11 01:49:57;;;;;;;4.9;2.2;;;;;;;;;;;;;
2019/09/11 01:52:19;;;;;;;3.3;2.2;;;;;;;;;;;;;
2019/09/11 01:54:43;;;;;;;3.9;2.1;;;;;;;;;;;;;
2019/09/11 01:57:20;;;;;;;3.6;2.2;;;;;;;;;;;;;
2019/09/11 01:59:38;;;;;;;4.3;2.3;;;;;;;;;;;;;
2019/09/11 02:02:00;;;;;;;3.6;2.1;;;;;;;;;;;;;
2019/09/11 02:04:26;;;;;;;6.5;2.4;;;;;;;;;;;;;
2019/09/11 02:06:50;;;;;;;4.1;2.2;;;;;;;;;;;;;
2019/09/11 02:09:17;;;;;;;4.2;2.1;;;;;;;;;;;;;
2019/09/11 02:11:42;;;;;;;4.4;2.2;;;;;;;;;;;;;
2019/09/11 02:14:07;;;;;;;3.1;2.1;;;;;;;;;;;;;
2019/09/11 02:16:35;;;;;;;3.9;2.2;;;;;;;;;;;;;
2019/09/11 02:18:56;;;;;;;3.6;2.2;;;;;;;;;;;;;
2019/09/11 02:21:22;;;;;;;2.8;2.5;;;;;;;;;;;;;
2019/09/11 02:23:48;;;;;;;12.6;6.3;;;;;;;;;;;;;
2019/09/11 02:26:22;;;;;;;10.3;5.4;;;;;;;;;;;;;
2019/09/11 02:28:40;;;;;;;5.2;3.3;;;;;;;;;;;;;
2019/09/11 02:31:05;;;;;;;5;2.3;;;;;;;;;;;;;
2019/09/11 02:33:30;;;;;;;4.3;2.5;;;;;;;;;;;;;
2019/09/11 02:35:58;;;;;;;4.1;2.4;;;;;;;;;;;;;
2019/09/11 02:38:26;;;;;;;4.7;2.3;;;;;;;;;;;;;
2019/09/11 02:40:46;;;;;;;3.9;2.2;;;;;;;;;;;;;
2019/09/11 02:43:11;;;;;;;8;2.5;;;;;;;;;;;;;
2019/09/11 02:48:07;;;;;;;4.8;2.2;;;;;;;;;;;;;
2019/09/11 02:50:31;;;;;;;4.2;2.3;;;;;;;;;;;;;
2019/09/11 02:53:19;;;;;;;4.2;2.1;;;;;;;;;;;;;
2019/09/11 02:55:41;;;;;;;7.2;2.5;;;;;;;;;;;;;
2019/09/11 02:58:07;;;;;;;6.2;2.3;;;;;;;;;;;;;
2019/09/11 03:00:35;;;;;;;8.5;2.3;;;;;;;;;;;;;
2019/09/11 03:03:00;;;;;;;3.3;2.1;;;;;;;;;;;;;
2019/09/11 03:05:24;;;;;;;3.9;2.3;;;;;;;;;;;;;
2019/09/11 03:07:49;;;;;;;4.2;2.5;;;;;;;;;;;;;
2019/09/11 03:10:20;;;;;;;4.6;2.6;;;;;;;;;;;;;
2019/09/11 03:13:20;;;;;;;3.3;2.6;;;;;;;;;;;;;
2019/09/11 03:15:44;;;;;;;4.7;2.7;;;;;;;;;;;;;
2019/09/11 03:18:16;;;;;;;5.7;3.3;;;;;;;;;;;;;
2019/09/11 03:20:39;;;;;;;5.2;3.1;;;;;;;;;;;;;
2019/09/11 03:23:05;;;;;;;5.5;3.4;;;;;;;;;;;;;
2019/09/11 03:25:29;;;;;;;6.6;3.9;;;;;;;;;;;;;
2019/09/11 03:27:57;;;;;;;5.1;3.9;;;;;;;;;;;;;
2019/09/11 03:30:21;;;;;;;7.9;3.8;;;;;;;;;;;;;
2019/09/11 03:32:45;;;;;;;6.8;4.2;;;;;;;;;;;;;
2019/09/11 03:35:19;;;;;;;13.1;6.9;;;;;;;;;;;;;
2019/09/11 03:37:42;;;;;;;12.6;8.3;;;;;;;;;;;;;
2019/09/11 03:40:12;;;;;;;12.2;8.2;;;;;;;;;;;;;
2019/09/11 03:42:36;;;;;;;14.1;7.8;;;;;;;;;;;;;
2019/09/11 03:45:00;;;;;;;9.7;8.1;;;;;;;;;;;;;
2019/09/11 03:48:22;;;;;;;11;8.8;;;;;;;;;;;;;
2019/09/11 03:49:52;;;;;;;9.8;7.5;;;;;;;;;;;;;
2019/09/11 03:52:16;;;;;;;10.6;7;;;;;;;;;;;;;
2019/09/11 03:54:41;;;;;;;11.4;7.5;;;;;;;;;;;;;
2019/09/11 03:57:12;;;;;;;10.2;5.6;;;;;;;;;;;;;
2019/09/11 03:59:35;;;;;;;7.2;4.5;;;;;;;;;;;;;
2019/09/11 04:02:38;;;;;;;10.6;4.3;;;;;;;12.73;85.61914;942.4604;;;;
2019/09/11 04:05:12;;;;;;;6.2;3.9;;;;;;;12.84;85.19238;942.4623;;;;
2019/09/11 04:07:42;;;;;;;5.7;3.9;;;;;;;12.98;84.77246;942.3865;;;;
2019/09/11 04:10:17;;;;;;;8;4.4;;;;;;;13.05;84.55762;942.4529;;;;
2019/09/11 04:12:47;;;;;;;7.9;3.9;;;;;;;13.15;84.43848;942.4975;;;;
2019/09/11 04:15:19;;;;;;;9.6;4.3;;;;;;;13.27;83.87598;942.5933;;;;
2019/09/11 04:17:45;;;;;;;7.8;4.1;;;;;;;13.31;83.32129;942.6214;;;;
2019/09/11 04:20:16;;;;;;;8.2;4.3;;;;;;;13.29;83.39648;942.6741;;;;
2019/09/11 04:22:45;;;;;;;6.9;4;;;;;;;13.25;83.49316;942.7434;;;;
2019/09/11 04:25:13;;;;;;;8.8;4.4;;;;;;;13.25;83.56152;942.781;;;;
2019/09/11 04:27:37;;;;;;;7.3;4.2;;;;;;;13.32;83.20605;942.7447;;;;
2019/09/11 04:30:11;;;;;;;9.6;4.2;;;;;;;13.38;83.05762;942.8273;;;;
2019/09/11 04:32:47;;;;;;;5.9;3.9;;;;;;;13.4;83.03809;942.8763;;;;
2019/09/11 04:35:12;;;;;;;7.3;3.7;;;;;;;13.4;83.07422;942.8516;;;;
2019/09/11 04:37:37;;;;;;;6.9;4.2;;;;;;;13.46;83.03809;942.9306;;;;
2019/09/11 04:40:10;;;;;;;6;4.5;;;;;;;13.49;82.76953;942.9788;;;;
2019/09/11 04:42:38;;;;;;;13.2;4.7;;;;;;;13.54;82.68652;943.0383;;;;
2019/09/11 04:45:31;;;;;;;9.1;4.6;;;;;;;13.49;82.85938;943.0684;;;;
2019/09/11 04:47:37;;;;;;;9.8;5.2;;;;;;;13.5;82.93262;943.0748;;;;
2019/09/11 04:50:10;;;;;;;10.9;4.6;;;;;;;13.49;82.5957;943.1588;;;;
2019/09/11 04:52:45;;;;;;;8.8;4.6;;;;;;;13.49;82.66406;943.1923;;;;
2019/09/11 04:55:15;;;;;;;7.2;4.4;;;;;;;13.45;82.50586;943.2289;;;;
2019/09/11 04:57:48;;;;;;;8.1;4.7;;;;;;;13.41;82.65039;943.2964;;;;
2019/09/11 05:00:24;;;;;;;5.3;4.2;;;;;;;13.38;82.71484;943.2786;;;;
2019/09/11 05:02:57;;;;;;;6.8;4.4;;;;;;;13.33;83.12891;943.3591;;;;
2019/09/11 05:06:10;;;;;;;6.8;4.2;;;;;;;13.32;83.16211;943.3414;;;;
2019/09/11 05:08:42;;;;;;;10;5.1;;;;;;;13.18;83.96191;943.3465;;;;
2019/09/11 05:11:19;;;;;;;8.2;5;;;;;;;12.97;85.0127;943.3434;;;;
2019/09/11 05:13:52;;;;;;;9.5;5.4;;;;;;;12.73;86.41211;943.345;;;;
2019/09/11 05:16:12;;;;;;;6.4;5;;;;;;;12.87;86.00293;943.4097;;;;
2019/09/11 05:18:43;;;;;;;9.8;5.2;;;;;;;12.78;86.05176;943.4086;;;;
2019/09/11 05:21:06;;;;;;;7.1;4.4;;;;;;;12.62;86.69824;943.3959;;;;
2019/09/11 05:23:30;;;;;;;9.4;4.9;;;;;;;12.65;86.7959;943.4497;;;;
2019/09/11 05:26:12;;;;;;;7.6;4.6;;;;;;;12.77;86.37402;943.498;;;;
2019/09/11 05:28:42;;;;;;;8.5;6.6;;;;;;;12.56;87.37402;943.4916;;;;
2019/09/11 05:31:08;;;;;;;12.8;7.6;;;;;;;12.53;88.0459;943.5249;;;;
2019/09/11 05:33:41;;;;;;;11.9;9;;;;;;;12.63;87.89355;943.6141;;;;
2019/09/11 05:36:11;;;;;;;17.1;10.5;;;;;;;12.7;87.50684;943.6228;;;;
2019/09/11 05:38:42;;;;;;;15.4;9.2;;;;;;;12.79;87.2627;943.611;;;;
2019/09/11 05:41:06;;;;;;;13.1;10;;;;;;;12.85;87.15918;943.6741;;;;
2019/09/11 05:43:31;;;;;;;14.3;9.9;;;;;;;12.9;87.13379;943.6186;;;;
2019/09/11 05:46:05;;;;;;;18.1;11.8;;;;;;;12.93;86.89746;943.6852;;;;
2019/09/11 05:48:37;;;;;;;14.8;11.6;;;;;;;12.96;86.68457;943.751;;;;
2019/09/11 05:51:02;;;;;;;16.4;11.4;;;;;;;12.97;86.75781;943.7839;;;;
2019/09/11 05:53:31;;;;;;;15.8;10.6;;;;;;;13.02;86.33008;943.8006;;;;
2019/09/11 05:56:06;;;;;;;13.1;9.8;;;;;;;13.17;86.09863;943.7275;;;;
2019/09/11 05:58:23;;;;;;;12.3;8.6;;;;;;;13.18;85.61621;943.787;;;;
2019/09/11 06:01:10;;;;;;;12.6;9;;;;;;;13.24;85.48828;943.767;;;;
2019/09/11 06:03:30;;;;;;;12.2;8.3;;;;;;;13.27;84.875;943.7665;;;;
2019/09/11 06:05:56;;;;;;;12.3;8.7;;;;;;;13.17;85.77637;943.7643;;;;
2019/09/11 06:08:26;;;;;;;25.1;8.5;;;;;;;13.2;85.33398;943.8344;;;;
2019/09/11 06:10:53;;;;;;;16.1;7.4;;;;;;;13.24;85.5459;943.9022;;;;
2019/09/11 06:13:26;;;;;;;12.4;6.7;;;;;;;13.35;84.82031;943.9119;;;;
2019/09/11 06:15:56;;;;;;;12;6.3;;;;;;;13.58;84.17578;943.9987;;;;
2019/09/11 06:18:22;;;;;;;12;6.4;;;;;;;13.61;83.81543;943.9989;;;;
2019/09/11 06:20:50;;;;;;;12.5;5.7;;;;;;;13.77;83.48828;944.0034;;;;
2019/09/11 06:23:21;;;;;;;7.9;5.2;;;;;;;13.64;83.24512;944.0026;;;;
2019/09/11 06:25:44;;;;;;;11;5.7;;;;;;;13.78;82.30664;943.9444;;;;
2019/09/11 06:28:12;;;;;;;9.6;5.2;;;;;;;13.99;82.00098;943.9978;;;;
2019/09/11 06:30:43;;;;;;;11.9;9.3;;;;;;;14.11;81.75781;943.9339;;;;
2019/09/11 06:33:16;;;;;;;7.7;5.5;;;;;;;14.3;80.16992;943.9799;;;;
2019/09/11 06:35:51;;;;;;;9;4.7;;;;;;;14.63;80.63281;943.9668;;;;
2019/09/11 06:38:19;;;;;;;7.6;5.1;;;;;;;15;78.74023;943.9992;;;;
2019/09/11 06:40:45;;;;;;;7.8;4.7;;;;;;;15.36;78.2168;943.9608;;;;
2019/09/11 06:43:19;;;;;;;8.9;4.8;;;;;;;15.56;77.60645;944.0164;;;;
2019/09/11 06:45:46;;;;;;;9.4;5;;;;;;;15.68;75.60547;943.992;;;;
2019/09/11 06:48:12;;;;;;;7.7;4.6;;;;;;;15.93;75.5459;943.9614;;;;
2019/09/11 06:50:37;;;;;;;10;5.8;;;;;;;15.95;73.66406;943.9775;;;;
2019/09/11 06:53:07;;;;;;;11.8;5.2;;;;;;;15.91;74.15332;944.0209;;;;
2019/09/11 06:56:15;;;;;;;6.9;4.7;;;;;;;15.79;74.54004;944.0385;;;;
2019/09/11 06:58:46;;;;;;;7.2;4.8;;;;;;;15.52;75.82227;944.1024;;;;
2019/09/11 07:01:19;;;;;;;9.5;4.9;;;;;;;15.25;76.80078;944.0947;;;;
2019/09/11 07:03:48;;;;;;;7.5;4.8;;;;;;;15.43;77.45605;944.0767;;;;
2019/09/11 07:06:19;;;;;;;8.4;5.1;;;;;;;15.68;76.98047;944.0338;;;;
2019/09/11 07:08:43;;;;;;;6.7;4.4;;;;;;;15.86;75.20898;944.0524;;;;
2019/09/11 07:11:09;;;;;;;6.4;3.8;;;;;;;15.79;74.50488;944.1333;;;;
2019/09/11 07:16:29;;;;;;;7.8;3.9;;;;;;;15.85;74.47949;944.1881;;;;
2019/09/11 07:18:55;;;;;;;4.6;3.9;;;;;;;15.85;74.51465;944.1921;;;;
2019/09/11 07:21:27;;;;;;;6.5;3.8;;;;;;;16.15;73.9502;944.13;;;;
2019/09/11 07:23:59;;;;;;;7.4;4.2;;;;;;;16.55;74.86426;944.1654;;;;
2019/09/11 07:26:28;;;;;;;5.7;4;;;;;;;16.92;72.10156;944.2385;;;;
2019/09/11 07:29:01;;;;;;;10.9;3.6;;;;;;;16.92;70.2832;944.2224;;;;
2019/09/11 07:31:35;;;;;;;4.9;3.4;;;;;;;17.02;70.50586;944.2492;;;;
2019/09/11 07:34:05;;;;;;;6.5;3.4;;;;;;;17.08;70.01758;944.2684;;;;
2019/09/11 07:36:28;;;;;;;5.6;3.3;;;;;;;17.37;69.85449;944.2701;;;;
2019/09/11 07:38:58;;;;;;;7;3.4;;;;;;;17.54;69.04688;944.2997;;;;
2019/09/11 07:41:22;;;;;;;5.2;2.8;;;;;;;17.61;68.2793;944.3475;;;;
2019/09/11 07:43:54;;;;;;;4.1;2.6;;;;;;;17.37;68.11426;944.3547;;;;
2019/09/11 07:46:25;;;;;;;5.2;2.7;;;;;;;17.05;69.75684;944.3644;;;;
2019/09/11 07:48:51;;;;;;;8;2.7;;;;;;;16.69;70.68652;944.3994;;;;
2019/09/11 07:51:26;;;;;;;6.1;2.5;;;;;;;16.67;70.28711;944.3456;;;;
2019/09/11 07:53:56;;;;;;;5.7;2.7;;;;;;;16.85;70.27148;944.3499;;;;
2019/09/11 07:56:26;;;;;;;4.4;2.4;;;;;;;17.09;70.27441;944.4342;;;;
2019/09/11 07:58:55;;;;;;;4.1;2.5;;;;;;;17.54;69;944.4777;;;;
2019/09/11 08:01:25;;;;;;;3.9;2.1;;;;;;;17.91;66.67773;944.4611;;;;
2019/09/11 08:04:11;;;;;;;9.4;2.2;;;;;;;18.53;65.40039;944.5106;;;;
2019/09/11 08:06:43;;;;;;;2.7;1.8;;;;;;;19.93;59.55371;944.5245;;;;
2019/09/11 08:09:14;;;;;;;2.7;1.4;;;;;;;20.5;57.39941;944.5673;;;;
2019/09/11 08:12:16;;;;;;;2.9;1.6;;;;;;;21.41;53.99316;944.5332;;;;
2019/09/11 08:14:42;;;;;;;4.2;1.7;;;;;;;22.56;52.53809;944.502;;;;
2019/09/11 08:17:12;;;;;;;6.8;1.6;;;;;;;23.98;48.2793;944.4844;;;;
2019/09/11 08:19:37;;;;;;;4.1;1.5;;;;;;;25.04;45.45508;944.4796;;;;
2019/09/11 08:22:08;;;;;;;2.5;1.2;;;;;;;24.5;45.2002;944.4746;;;;
2019/09/11 08:24:44;;;;;;;5.1;1.2;;;;;;;23.75;45.84277;944.455;;;;
2019/09/11 08:27:15;;;;;;;3;1.3;;;;;;;24.06;44.87305;944.4163;;;;
2019/09/11 08:29:40;;;;;;;2.8;1.2;;;;;;;25;43.39844;944.4066;;;;
2019/09/11 08:32:16;;;;;;;2.9;1.3;;;;;;;26.26;42.97656;944.3847;;;;
2019/09/11 08:34:41;;;;;;;2.8;1.2;;;;;;;26.9;40.18164;944.3978;;;;
2019/09/11 08:37:18;;;;;;;2.5;1.2;;;;;;;27.5;38.49121;944.3308;;;;
2019/09/11 08:39:46;;;;;;;4;1.3;;;;;;;27.42;39.68262;944.3118;;;;
2019/09/11 08:42:10;;;;;;;2.6;1.1;;;;;;;27.35;39.11914;944.3572;;;;
2019/09/11 08:44:36;;;;;;;2.6;1;;;;;;;27.45;40.5752;944.3063;;;;
2019/09/11 08:47:07;;;;;;;3.8;1.3;;;;;;;27.37;38.63477;944.2522;;;;
2019/09/11 08:49:34;;;;;;;2.7;1.2;;;;;;;27.34;40.51758;944.2455;;;;
2019/09/11 08:52:02;;;;;;;2.9;1.1;;;;;;;26.88;39.46875;944.2639;;;;
2019/09/11 08:54:28;;;;;;;1.8;1.3;;;;;;;27.52;39.12207;944.287;;;;
2019/09/11 08:56:59;;;;;;;6;1.6;;;;;;;26.87;40.58203;944.2779;;;;
2019/09/11 08:59:31;;;;;;;3.4;1.3;;;;;;;27.35;39.84277;944.2115;;;;
2019/09/11 09:01:54;;;;;;;2.3;1.3;;;;;;;27.29;38.72266;944.3067;;;;
2019/09/11 09:04:24;;;;;;;2.3;1;;;;;;;26.48;38.77148;944.296;;;;
2019/09/11 09:06:48;;;;;;;2.5;1.4;;;;;;;26.12;40.15918;944.3217;;;;
2019/09/11 09:09:13;;;;;;;2.4;1.3;;;;;;;26.28;42.78906;944.2891;;;;
2019/09/11 09:11:53;;;;;;;4;1.5;;;;;;;26.03;44.54004;944.2583;;;;
2019/09/11 09:14:19;;;;;;;2.7;1.5;;;;;;;25.11;44.83594;944.2269;;;;
2019/09/11 09:16:53;;;;;;;5.5;1.6;;;;;;;25.19;44.38477;944.147;;;;
2019/09/11 09:19:24;;;;;;;3.2;1.5;;;;;;;24.45;49.82617;944.1816;;;;
2019/09/11 09:21:43;;;;;;;2.9;1.5;;;;;;;24.39;48.24121;944.1858;;;;
2019/09/11 09:24:07;;;;;;;2.4;1.7;;;;;;;24.6;47.6748;944.1666;;;;
2019/09/11 09:26:38;;;;;;;3.8;1.5;;;;;;;24.59;49.64258;944.1482;;;;
2019/09/11 09:29:06;;;;;;;2.9;1.7;;;;;;;24.38;49.05273;944.1367;;;;
2019/09/11 09:31:37;;;;;;;5.1;1.9;;;;;;;23.91;50.30762;944.1052;;;;
2019/09/11 09:34:12;;;;;;;5.5;1.9;;;;;;;23.77;51.25781;944.1614;;;;
2019/09/11 09:36:39;;;;;;;3.8;2.2;;;;;;;23.55;52.10156;944.103;;;;
2019/09/11 09:39:06;;;;;;;2.8;1.9;;;;;;;23.65;50.39648;944.1111;;;;
2019/09/11 09:41:35;;;;;;;3.3;2;;;;;;;23.57;50.19922;944.0595;;;;
2019/09/11 09:43:59;;;;;;;2;1.7;;;;;;;23.52;52.92188;944.0576;;;;
2019/09/11 09:46:24;;;;;;;3.3;2;;;;;;;23.47;53.66895;944.0606;;;;
2019/09/11 09:49:04;;;;;;;5.1;2.1;;;;;;;23.39;53.24805;944.067;;;;
2019/09/11 09:51:26;;;;;;;4.7;2;;;;;;;23.63;53.28711;944.0489;;;;
2019/09/11 09:54:02;;;;;;;3.3;2.3;;;;;;;23.31;51.64063;944.057;;;;
2019/09/11 09:56:27;;;;;;;4.8;2.5;;;;;;;23.44;54.71191;944.0916;;;;
2019/09/11 09:59:16;;;;;;;3.2;2;;;;;;;23.57;53.08105;944.1139;;;;
2019/09/11 10:01:51;;;;;;;6;2.7;;;;;;;23.63;53.37012;944.1838;;;;
2019/09/11 10:04:20;;;;;;;3.7;2.9;;;;;;;23.61;53.29688;944.137;;;;
2019/09/11 10:07:16;;;;;;;5;3;;;;;;;23.44;52.78223;944.0933;;;;
2019/09/11 10:09:42;;;;;;;11.3;2.9;;;;;;;23.48;53.39844;944.1646;;;;
2019/09/11 10:12:11;;;;;;;4.3;3.3;;;;;;;23.3;53.40137;944.185;;;;
2019/09/11 10:14:33;;;;;;;3.6;3.1;;;;;;;22.99;53.8916;944.197;;;;
2019/09/11 10:16:57;;;;;;;4.4;3.4;;;;;;;23.28;55.96191;944.2263;;;;
2019/09/11 10:19:24;;;;;;;5;3.3;;;;;;;23.35;54.27637;944.2316;;;;
2019/09/11 10:22:12;;;;;;;5.5;3.3;;;;;;;23.43;54.99121;944.2246;;;;
2019/09/11 10:25:16;;;;;;;6.1;3;;;;;;;23.47;54.51465;944.1665;;;;
2019/09/11 10:27:40;;;;;;;3.8;3;;;;;;;23.53;52.64063;944.2157;;;;
2019/09/11 10:30:06;;;;;;;4.3;2.9;;;;;;;23.72;54.54688;944.2371;;;;
2019/09/11 10:32:41;;;;;;;4.4;3.1;;;;;;;23.98;54.47168;944.2283;;;;
2019/09/11 10:35:09;;;;;;;7.4;3.3;;;;;;;24.15;52.33594;944.2067;;;;
2019/09/11 10:37:38;;;;;;;4.3;2.9;;;;;;;24.06;52.50293;944.1356;;;;
2019/09/11 10:40:04;;;;;;;4.6;2.7;;;;;;;24.31;52.80371;944.122;;;;
2019/09/11 10:42:35;;;;;;;5.1;2.9;;;;;;;24.25;52.62012;944.1669;;;;
2019/09/11 10:45:08;;;;;;;5.1;3.3;;;;;;;24.45;53.03223;944.1818;;;;
2019/09/11 10:47:30;;;;;;;4.8;3;;;;;;;24.56;52.72656;944.1094;;;;
2019/09/11 10:50:15;;;;;;;3.6;2.9;;;;;;;24.68;49.60547;944.0947;;;;
2019/09/11 10:52:41;;;;;;;5.4;3;;;;;;;24.71;50.70508;944.084;;;;
2019/09/11 10:55:12;;;;;;;5.1;3.1;;;;;;;24.76;50.6748;944.0552;;;;
2019/09/11 10:57:43;;;;;;;4.3;3.2;;;;;;;24.73;48.86719;944.0386;;;;
2019/09/11 11:00:14;;;;;;;6.1;3.2;;;;;;;24.74;50.84961;944.0561;;;;
2019/09/11 11:02:40;;;;;;;4.7;3.4;;;;;;;24.61;51.21191;944.0955;;;;
2019/09/11 11:05:13;;;;;;;6.6;3.5;;;;;;;24.74;51.85156;944.0822;;;;
2019/09/11 11:07:37;;;;;;;7.5;3.9;;;;;;;24.85;51.98242;944.0801;;;;
2019/09/11 11:10:04;;;;;;;4.8;3.6;;;;;;;25.1;49.30957;944.0705;;;;
2019/09/11 11:12:28;;;;;;;5.6;3.8;;;;;;;25.42;49.06152;944.0765;;;;
2019/09/11 11:14:55;;;;;;;3.6;3;;;;;;;26.19;47.46484;944.185;;;;
2019/09/11 11:17:23;;;;;;;6.9;2.9;;;;;;;26.75;46.66016;944.127;;;;
2019/09/11 11:19:51;;;;;;;5;3.4;;;;;;;27.48;44.86035;944.1566;;;;
2019/09/11 11:22:29;;;;;;;4.5;3.2;;;;;;;27.95;43.19824;944.1987;;;;
2019/09/11 11:24:55;;;;;;;4.2;3.1;;;;;;;28.18;43.24316;944.1895;;;;
2019/09/11 11:27:28;;;;;;;4;3.1;;;;;;;28.32;41.90234;944.2681;;;;
2019/09/11 11:29:57;;;;;;;5.5;3.6;;;;;;;28.38;41.84766;944.1932;;;;
2019/09/11 11:32:21;;;;;;;6.9;3.5;;;;;;;28.83;42.10352;944.2578;;;;
2019/09/11 11:34:44;;;;;;;5.6;2.8;;;;;;;29.6;40.9248;944.2916;;;;
2019/09/11 11:37:11;;;;;;;5;2.6;;;;;;;30.54;37.76074;944.3038;;;;
2019/09/11 11:39:37;;;;;;;3.8;2.7;;;;;;;31.58;35.88281;944.2731;;;;
2019/09/11 11:42:04;;;;;;;3.8;2.9;;;;;;;32.01;34.15527;944.1939;;;;
2019/09/11 11:44:28;;;;;;;6.3;2.7;;;;;;;32.75;34.11621;944.2281;;;;
2019/09/11 11:47:01;;;;;;;4;3;;;;;;;33.63;32.77441;944.2316;;;;
2019/09/11 11:49:21;;;;;;;5.9;2.6;;;;;;;33.35;31.56445;944.2227;;;;
2019/09/11 11:51:56;;;;;;;4.4;2.6;;;;;;;34.11;32.12305;944.2497;;;;
2019/09/11 11:54:16;;;;;;;4;2.7;;;;;;;33.74;31.44727;944.2196;;;;
2019/09/11 11:56:46;;;;;;;5.2;3;;;;;;;33.56;31.95117;944.1928;;;;
2019/09/11 11:59:12;;;;;;;4;2.4;;;;;;;33.97;31.47461;944.2135;;;;
2019/09/11 12:01:47;;;;;;;5.3;2.6;;;;;;;33.83;30.68262;944.2421;;;;
2019/09/11 12:04:16;;;;;;;3.9;2.6;;;;;;;34.59;29.4082;944.1995;;;;
2019/09/11 12:06:43;;;;;;;4.5;2.7;;;;;;;35.19;29.99023;944.1492;;;;
2019/09/11 12:09:03;;;;;;;3.2;2.1;;;;;;;35.82;28.03809;944.1528;;;;
2019/09/11 12:11:48;;;;;;;4;2.4;;;;;;;36.04;27.16797;944.2196;;;;
2019/09/11 12:14:00;;;;;;;3.9;2;;;;;;;36.44;26.98633;944.2639;;;;
2019/09/11 12:16:32;;;;;;;5;2.4;;;;;;;36.11;27.91016;944.223;;;;
2019/09/11 12:18:57;;;;;;;3.5;2.2;;;;;;;36.15;26.72754;944.2234;;;;
2019/09/11 12:21:27;;;;;;;2.9;2.3;;;;;;;35.29;27.93262;944.185;;;;
2019/09/11 12:23:57;;;;;;;4;2.4;;;;;;;34.8;29.42188;944.2144;;;;
2019/09/11 12:26:24;;;;;;;3.4;2.3;;;;;;;35.01;28.37402;944.2581;;;;
2019/09/11 12:29:16;;;;;;;2.9;2.4;;;;;;;33.91;30.09863;944.2134;;;;
2019/09/11 12:31:52;;;;;;;5.5;2.6;;;;;;;34.78;29.91504;944.2188;;;;
2019/09/11 12:34:11;;;;;;;3.7;2.5;;;;;;;35.19;28.50586;944.2397;;;;
2019/09/11 12:36:43;;;;;;;3.8;2.1;;;;;;;35.01;28.65137;944.2397;;;;
2019/09/11 12:39:44;;;;;;;6.4;2.4;;;;;;;34.81;28.66211;944.1279;;;;
2019/09/11 12:46:17;;;;;;;3.1;2.1;;;;;;;36.4;27.11719;944.0089;;;;
2019/09/11 12:48:50;;;;;;;4.7;2.1;;;;;;;36.74;26.3252;943.9531;;;;
2019/09/11 12:51:33;;;;;;;4.8;2.3;;;;;;;36.3;26.56641;943.9945;;;;
2019/09/11 13:00:03;;;;;;;3.1;2.2;;;;;;;35.42;27.96484;944.0156;;;;
2019/09/11 13:00:56;;;;;;;4;1.9;;;;;;;36.96;26.9082;943.9702;;;;
2019/09/11 13:02:58;;;;;;;3.4;1.9;;;;;;;36.79;25.89258;943.9731;;;;
2019/09/11 13:05:27;;;;;;;4.4;2.2;;;;;;;37.26;25.71289;943.9589;;;;
2019/09/11 13:08:03;;;;;;;4;2;;;;;;;37.73;25.30273;943.9805;;;;
2019/09/11 13:10:34;;;;;;;3.9;1.9;;;;;;;37.32;25.06152;943.9277;;;;
2019/09/11 13:12:59;;;;;;;6.6;1.9;;;;;;;37.11;25.42578;943.9023;;;;
2019/09/11 13:15:27;;;;;;;3.7;1.8;;;;;;;36.98;26.19336;943.8403;;;;
2019/09/11 13:17:51;;;;;;;3.3;2;;;;;;;37.19;25.93945;943.8482;;;;
2019/09/11 13:20:26;;;;;;;3;1.9;;;;;;;36.11;27.01465;943.8684;;;;
2019/09/11 13:22:57;;;;;;;3;1.9;;;;;;;35.78;27.4668;943.8169;;;;
2019/09/11 13:25:28;;;;;;;4.5;2.1;;;;;;;35.81;26.97363;943.7606;;;;
2019/09/11 13:27:55;;;;;;;5.4;1.8;;;;;;;35.06;28.21973;943.8453;;;;
2019/09/11 13:30:28;;;;;;;5.3;2;;;;;;;34.35;29.27246;943.8549;;;;
2019/09/11 13:32:52;;;;;;;4.6;2.2;;;;;;;34.28;29.93066;943.8445;;;;
2019/09/11 13:35:23;;;;;;;3.8;2.2;;;;;;;33.47;30.39453;943.7896;;;;
2019/09/11 13:37:55;;;;;;;2.8;1.7;;;;;;;33.38;30.65234;943.7664;;;;
2019/09/11 13:40:27;;;;;;;3.6;1.9;;;;;;;33.31;31.10449;943.8194;;;;
2019/09/11 13:42:59;;;;;;;3.7;2;;;;;;;32.76;31.67969;943.7879;;;;
2019/09/11 13:45:21;;;;;;;4.9;2.1;;;;;;;33.04;31.44629;943.7787;;;;
2019/09/11 13:47:47;;;;;;;3.7;2.1;;;;;;;32.34;33.07715;943.81;;;;
2019/09/11 13:50:17;;;;;;;2.9;2;;;;;;;31.59;33.93262;943.8393;;;;
2019/09/11 13:52:43;;;;;;;3.2;2;;;;;;;30.99;35.2627;943.7902;;;;
2019/09/11 13:55:16;;;;;;;2.5;2.1;;;;;;;29.88;37.45508;943.8347;;;;
2019/09/11 13:57:41;;;;;;;2.7;2.2;;;;;;;28.74;39.63379;943.7989;;;;
2019/09/11 14:00:08;;;;;;;3.6;2.2;;;;;;;28.36;41.78809;943.8148;;;;
2019/09/11 14:02:44;;;;;;;3.6;2.4;;;;;;;27.67;42.64844;943.8275;;;;
2019/09/11 14:05:14;;;;;;;3.6;2.2;;;;;;;27.07;43.70703;943.7552;;;;
2019/09/11 14:07:46;;;;;;;3.3;2.2;;;;;;;26.66;45.20605;943.8163;;;;
2019/09/11 14:10:09;;;;;;;3.3;2.2;;;;;;;26.38;46.30176;943.8092;;;;
2019/09/11 14:12:39;;;;;;;4.1;2.3;;;;;;;25.96;47.06348;943.812;;;;
2019/09/11 14:15:14;;;;;;;6;2.3;;;;;;;25.74;46.02344;943.8403;;;;
2019/09/11 14:17:36;;;;;;;6.3;2.6;;;;;;;25.46;47.4707;943.9285;;;;
2019/09/11 14:20:02;;;;;;;5;2.5;;;;;;;25.41;48.5166;943.8045;;;;
2019/09/11 14:22:28;;;;;;;4.2;2.5;;;;;;;25.27;47.63867;943.8583;;;;
2019/09/11 14:24:56;;;;;;;5.4;2.7;;;;;;;24.97;49.25977;943.9003;;;;
2019/09/11 14:27:29;;;;;;;3.9;2.7;;;;;;;24.94;48.65527;943.8893;;;;
2019/09/11 14:29:55;;;;;;;4.4;2.6;;;;;;;24.74;49.11719;943.9135;;;;
2019/09/11 14:34:57;;;;;;;6;2.7;;;;;;;24.88;49.24902;943.899;;;;
2019/09/11 14:37:22;;;;;;;4.2;2.5;;;;;;;24.15;50.28809;943.9608;;;;
2019/09/11 14:39:52;;;;;;;4.7;2.5;;;;;;;23.89;51.4707;943.9847;;;;
2019/09/11 14:42:16;;;;;;;4.8;2.3;;;;;;;23.65;51.73828;944.0589;;;;
2019/09/11 14:44:49;;;;;;;7.4;2.9;;;;;;;22.88;53.06836;944.0126;;;;
2019/09/11 14:47:19;;;;;;;4.3;3.1;;;;;;;22.89;52.90527;944.1446;;;;
2019/09/11 14:49:46;;;;;;;3.8;2.5;;;;;;;22.62;54.36426;944.1732;;;;
2019/09/11 14:52:15;;;;;;;3.9;2.9;;;;;;;22.79;53.69141;944.1241;;;;
2019/09/11 14:54:43;;;;;;;4;2.8;;;;;;;22.9;53.16504;944.0721;;;;
2019/09/11 14:57:16;;;;;;;4.5;2.9;;;;;;;22.8;54.04492;944.1069;;;;
2019/09/11 14:59:41;;;;;;;5.2;2.7;;;;;;;22.81;54.64551;944.1375;;;;
2019/09/11 15:02:07;;;;;;;3.3;2.6;;;;;;;22.85;54.33398;944.1816;;;;
2019/09/11 15:04:35;;;;;;;4.3;2.7;;;;;;;22.69;54.56152;944.2023;;;;
2019/09/11 15:07:07;;;;;;;3.2;2.6;;;;;;;22.41;54.50098;944.2056;;;;
2019/09/11 15:10:19;;;;;;;4.2;3;;;;;;;22.06;55.62109;944.3328;;;;
2019/09/11 15:12:48;;;;;;;4.1;3.2;;;;;;;21.8;56.16211;944.3633;;;;
2019/09/11 15:15:16;;;;;;;5.5;3.1;;;;;;;21.51;57.35449;944.4355;;;;
2019/09/11 15:17:44;;;;;;;3.4;2.6;;;;;;;21.58;57.16504;944.4614;;;;
2019/09/11 15:20:13;;;;;;;5.1;2.8;;;;;;;21.74;57.40723;944.4728;;;;
2019/09/11 15:22:44;;;;;;;4.1;2.6;;;;;;;22.14;56.70801;944.4484;;;;
2019/09/11 15:25:13;;;;;;;4.2;3;;;;;;;22.28;55.45898;944.4978;;;;
2019/09/11 15:27:40;;;;;;;5;2.7;;;;;;;22.15;55.77148;944.5058;;;;
2019/09/11 15:30:11;;;;;;;5.1;2.8;;;;;;;22.13;55.18457;944.5134;;;;
2019/09/11 15:32:41;;;;;;;6.3;2.8;;;;;;;22.14;55.4668;944.6259;;;;
2019/09/11 15:35:08;;;;;;;4.6;3;;;;;;;21.96;55.66602;944.6721;;;;
2019/09/11 15:37:32;;;;;;;4.2;2.7;;;;;;;21.82;56.76172;944.6961;;;;
2019/09/11 15:40:02;;;;;;;3.5;3;;;;;;;21.66;56.44824;944.6562;;;;
2019/09/11 15:42:37;;;;;;;5.1;3;;;;;;;21.52;57.45996;944.6631;;;;
2019/09/11 15:45:12;;;;;;;3.6;2.5;;;;;;;21.43;57.6123;944.7778;;;;
2019/09/11 15:47:44;;;;;;;5.4;2.7;;;;;;;21.53;57.46289;944.7803;;;;
2019/09/11 15:50:13;;;;;;;3.2;2.8;;;;;;;21.57;57.52539;944.8329;;;;
2019/09/11 15:52:46;;;;;;;6.2;3;;;;;;;21.45;57.65137;944.8867;;;;
2019/09/11 15:55:10;;;;;;;3.7;3;;;;;;;21.16;58.23242;945.0006;;;;
2019/09/11 15:57:35;;;;;;;4.9;3;;;;;;;21.03;59.02246;945.0364;;;;
2019/09/11 16:00:04;;;;;;;5.2;2.9;;;;;;;21.17;58.23438;945.053;;;;
2019/09/11 16:02:28;;;;;;;4.6;3.2;;;;;;;21.3;57.91211;945.0712;;;;
2019/09/11 16:05:16;;;;;;;4.5;3.2;;;;;;;21.35;57.97754;945.1058;;;;
2019/09/11 16:07:45;;;;;;;4.1;3.3;;;;;;;21.1;58.96289;945.0892;;;;
2019/09/11 16:10:09;;;;;;;6.6;3;;;;;;;21.19;58.37598;945.0559;;;;
2019/09/11 16:12:38;;;;;;;7.2;2.9;;;;;;;21.12;58.94141;945.1035;;;;
2019/09/11 16:15:16;;;;;;;4.8;2.6;;;;;;;21.2;58.26172;945.0938;;;;